Time;durP1;ratioP1;P1;durP2;ratioP2;P2;SDS_P1;SDS_P2;PMS_P1;PMS_P2;Temp;Humidity;BMP_temperature;BMP_pressure;BME280_temperature;BME280_humidity;BME280_pressure;Samples;Min_cycle;Max_cycle;Signal;HPM_P1;HPM_P2
2022/04/02 00:01:34;;;;;;;9.07;8.17;;;3.40;99.90;;;;;;5052731;28;20646;-63
2022/04/02 00:04:01;;;;;;;8.53;7.63;;;3.40;99.90;;;;;;5052778;28;20230;-63
2022/04/02 00:06:29;;;;;;;8.77;7.93;;;3.40;99.90;;;;;;5052648;28;20669;-63
2022/04/02 00:08:55;;;;;;;8.40;7.07;;;3.40;99.90;;;;;;5052778;28;20556;-63
2022/04/02 00:11:22;;;;;;;8.30;7.50;;;3.30;99.90;;;;;;5053038;28;20808;-63
2022/04/02 00:13:49;;;;;;;8.40;7.50;;;3.10;99.90;;;;;;5052610;28;20555;-63
2022/04/02 00:16:15;;;;;;;9.70;8.70;;;3.00;99.90;;;;;;5052816;28;20581;-63
2022/04/02 00:18:43;;;;;;;9.60;7.43;;;2.90;99.90;;;;;;5052529;28;20209;-63
2022/04/02 00:21:10;;;;;;;8.30;7.50;;;2.90;99.90;;;;;;5052660;28;20236;-63
2022/04/02 00:23:40;;;;;;;8.77;7.87;;;2.90;99.90;;;;;;5052130;28;20222;-63
2022/04/02 00:26:07;;;;;;;8.70;7.80;;;3.10;99.90;;;;;;5052567;28;20232;-63
2022/04/02 00:28:36;;;;;;;8.30;7.50;;;3.30;99.90;;;;;;5052435;28;20327;-63
2022/04/02 00:31:02;;;;;;;8.37;7.57;;;3.30;99.90;;;;;;5052162;28;20234;-63
2022/04/02 00:33:29;;;;;;;8.23;7.43;;;3.50;99.90;;;;;;5052140;28;20252;-63
2022/04/02 00:35:56;;;;;;;8.73;7.83;;;3.40;99.90;;;;;;5052467;28;20213;-63
2022/04/02 00:38:23;;;;;;;8.93;8.03;;;3.30;99.90;;;;;;5052362;28;20212;-63
2022/04/02 00:40:51;;;;;;;8.60;7.70;;;3.30;99.90;;;;;;5052065;28;20257;-63
2022/04/02 00:43:23;;;;;;;8.63;7.83;;;3.40;99.90;;;;;;5051892;28;20252;-63
2022/04/02 00:45:51;;;;;;;9.03;7.77;;;3.40;99.90;;;;;;5051686;28;20259;-63
2022/04/02 00:48:19;;;;;;;8.23;7.37;;;3.40;99.90;;;;;;5052387;28;20301;-63
2022/04/02 00:50:47;;;;;;;10.53;8.03;;;3.40;99.90;;;;;;5052120;28;20349;-64
2022/04/02 00:53:15;;;;;;;8.43;7.60;;;3.40;99.90;;;;;;5051816;28;20210;-64
2022/04/02 00:55:43;;;;;;;8.87;7.93;;;3.50;99.90;;;;;;5051951;28;20213;-63
2022/04/02 00:58:12;;;;;;;9.90;8.67;;;3.60;99.90;;;;;;5051743;28;20300;-63
2022/04/02 01:00:40;;;;;;;9.23;7.63;;;3.70;99.90;;;;;;5052213;28;20230;-63
2022/04/02 01:03:08;;;;;;;10.23;8.10;;;3.70;99.90;;;;;;5051446;28;20605;-64
2022/04/02 01:05:35;;;;;;;15.17;13.03;;;3.60;99.90;;;;;;5051780;28;20238;-64
2022/04/02 01:08:05;;;;;;;8.50;7.27;;;3.70;99.90;;;;;;5051758;28;20235;-63
2022/04/02 01:10:32;;;;;;;8.70;7.57;;;3.80;99.90;;;;;;5051692;28;20225;-63
2022/04/02 01:12:59;;;;;;;8.43;7.63;;;3.70;99.90;;;;;;5051383;28;20204;-63
2022/04/02 01:15:27;;;;;;;8.60;7.70;;;3.70;99.90;;;;;;5051866;28;20213;-64
2022/04/02 01:17:53;;;;;;;9.63;8.40;;;3.80;99.90;;;;;;5051581;28;20731;-63
2022/04/02 01:20:21;;;;;;;9.33;8.00;;;3.90;99.90;;;;;;5051666;28;20229;-64
2022/04/02 01:22:49;;;;;;;8.83;7.93;;;3.90;99.90;;;;;;5051269;28;20276;-64
2022/04/02 01:25:16;;;;;;;7.73;6.93;;;3.90;99.90;;;;;;5051515;28;20233;-64
2022/04/02 01:27:44;;;;;;;8.47;7.50;;;3.90;99.90;;;;;;5051429;28;20588;-63
2022/04/02 01:30:13;;;;;;;8.50;7.30;;;3.90;99.90;;;;;;5051702;28;20312;-63
2022/04/02 01:32:40;;;;;;;8.83;7.70;;;3.90;99.90;;;;;;5051460;28;20212;-64
2022/04/02 01:35:08;;;;;;;9.67;7.00;;;3.80;99.90;;;;;;5051722;28;20205;-63
2022/04/02 01:37:35;;;;;;;7.43;6.73;;;3.70;99.90;;;;;;5051746;28;20205;-63
2022/04/02 01:40:03;;;;;;;8.90;6.87;;;3.70;99.90;;;;;;5051746;28;20209;-63
2022/04/02 01:42:30;;;;;;;8.20;7.03;;;3.60;99.90;;;;;;5051898;28;20340;-64
2022/04/02 01:44:57;;;;;;;7.93;7.13;;;3.60;99.90;;;;;;5051440;28;20279;-63
2022/04/02 01:47:24;;;;;;;7.87;7.03;;;3.60;99.90;;;;;;5051273;28;20613;-63
2022/04/02 01:49:51;;;;;;;9.27;7.13;;;3.60;99.90;;;;;;5051201;28;20300;-64
2022/04/02 01:52:20;;;;;;;9.03;7.43;;;3.60;99.90;;;;;;5051952;28;20205;-63
2022/04/02 01:54:47;;;;;;;8.73;7.27;;;3.60;99.90;;;;;;5051185;28;20201;-63
2022/04/02 01:57:16;;;;;;;8.03;6.67;;;3.60;99.90;;;;;;5051929;28;20216;-64
2022/04/02 01:59:44;;;;;;;7.93;7.00;;;3.50;99.90;;;;;;5055245;28;20205;-63
2022/04/02 02:02:11;;;;;;;7.40;6.67;;;3.40;99.90;;;;;;5055092;28;20231;-63
2022/04/02 02:04:38;;;;;;;8.17;6.53;;;3.30;99.90;;;;;;5054736;28;20236;-63
2022/04/02 02:07:06;;;;;;;8.73;6.93;;;3.20;99.90;;;;;;5055042;28;20205;-64
2022/04/02 02:09:34;;;;;;;7.80;7.03;;;3.20;99.90;;;;;;5054775;28;20616;-63
2022/04/02 02:12:01;;;;;;;8.40;6.23;;;3.10;99.90;;;;;;5055023;28;20312;-63
2022/04/02 02:14:29;;;;;;;9.03;6.57;;;3.20;99.90;;;;;;5054550;28;20670;-64
2022/04/02 02:16:56;;;;;;;7.33;6.40;;;3.10;99.90;;;;;;5054857;28;20272;-63
2022/04/02 02:19:23;;;;;;;9.33;6.57;;;3.10;99.90;;;;;;5055285;28;20205;-63
2022/04/02 02:21:50;;;;;;;8.77;6.17;;;3.10;99.90;;;;;;5054503;28;20646;-63
2022/04/02 02:24:17;;;;;;;6.93;6.23;;;3.00;99.90;;;;;;5054383;28;20225;-63
2022/04/02 02:26:44;;;;;;;8.40;6.47;;;3.00;99.90;;;;;;5054723;28;20292;-63
2022/04/02 02:29:11;;;;;;;9.20;7.23;;;3.00;99.90;;;;;;5054731;28;20210;-63
2022/04/02 02:31:39;;;;;;;8.17;6.63;;;3.00;99.90;;;;;;5054571;28;20283;-63
2022/04/02 02:36:50;;;;;;;7.33;6.07;;;2.90;99.90;;;;;;5054499;28;20204;-64
2022/04/02 02:39:16;;;;;;;7.30;6.60;;;2.70;99.90;;;;;;5054680;28;20209;-63
2022/04/02 02:41:43;;;;;;;7.43;6.20;;;2.70;99.90;;;;;;5054536;28;20225;-64
2022/04/02 02:44:10;;;;;;;8.90;6.63;;;2.60;99.90;;;;;;5054255;28;20279;-64
2022/04/02 02:46:37;;;;;;;10.40;6.67;;;2.50;99.90;;;;;;5054390;28;20209;-63
2022/04/02 02:49:05;;;;;;;7.27;6.23;;;2.40;99.90;;;;;;5054725;28;20209;-64
2022/04/02 02:51:31;;;;;;;11.57;6.70;;;2.40;99.90;;;;;;5054141;28;20283;-63
2022/04/02 02:53:58;;;;;;;8.50;6.63;;;2.40;99.90;;;;;;5054112;28;20700;-64
2022/04/02 02:56:25;;;;;;;16.33;6.37;;;2.50;99.90;;;;;;5054507;28;20255;-64
2022/04/02 02:58:52;;;;;;;12.37;6.70;;;2.50;99.90;;;;;;5054233;28;20213;-63
2022/04/02 03:01:18;;;;;;;8.50;6.40;;;2.40;99.90;;;;;;5053931;28;20307;-63
2022/04/02 03:03:45;;;;;;;9.40;5.73;;;2.40;99.90;;;;;;5053915;28;20291;-63
2022/04/02 03:06:13;;;;;;;9.00;6.20;;;2.40;99.90;;;;;;5054102;28;20240;-63
2022/04/02 03:08:40;;;;;;;9.57;5.87;;;2.20;99.90;;;;;;5053846;28;20297;-63
2022/04/02 03:11:07;;;;;;;9.40;5.90;;;2.20;99.90;;;;;;5053866;28;20230;-63
2022/04/02 03:13:34;;;;;;;9.00;5.70;;;2.20;99.90;;;;;;5053589;28;20645;-63
2022/04/02 03:16:02;;;;;;;11.97;6.00;;;2.20;99.90;;;;;;5053666;28;20646;-63
2022/04/02 03:18:29;;;;;;;13.43;5.77;;;2.20;99.90;;;;;;5053904;28;20205;-63
2022/04/02 03:20:55;;;;;;;12.30;6.20;;;2.20;99.90;;;;;;5053768;28;20226;-63
2022/04/02 03:23:23;;;;;;;10.23;6.10;;;2.10;99.90;;;;;;5053402;28;20209;-63
2022/04/02 03:25:50;;;;;;;8.70;5.73;;;2.20;99.90;;;;;;5053573;28;20210;-63
2022/04/02 03:28:17;;;;;;;12.53;6.03;;;2.10;99.90;;;;;;5053425;28;20209;-63
2022/04/02 03:30:44;;;;;;;12.83;5.70;;;2.10;99.90;;;;;;5053687;28;20229;-63
2022/04/02 03:33:11;;;;;;;8.20;5.73;;;2.10;99.90;;;;;;5053614;28;20557;-63
2022/04/02 03:35:39;;;;;;;9.87;5.77;;;2.00;99.90;;;;;;5053519;28;20201;-63
2022/04/02 03:38:05;;;;;;;10.60;6.20;;;2.10;99.90;;;;;;5053383;28;20252;-63
2022/04/02 03:40:33;;;;;;;12.47;6.07;;;2.10;99.90;;;;;;5053233;28;20473;-63
2022/04/02 03:43:00;;;;;;;8.83;6.00;;;2.20;99.90;;;;;;5052937;28;20210;-63
2022/04/02 03:45:27;;;;;;;10.80;6.00;;;2.20;99.90;;;;;;5053215;28;20291;-64
2022/04/02 03:47:53;;;;;;;10.23;6.80;;;2.20;99.90;;;;;;5053164;28;20217;-63
2022/04/02 03:50:21;;;;;;;9.50;6.00;;;2.30;99.90;;;;;;5053050;28;20233;-63
2022/04/02 03:52:47;;;;;;;10.17;5.67;;;2.30;99.90;;;;;;5052856;28;20312;-63
2022/04/02 03:55:14;;;;;;;10.70;6.17;;;2.30;99.90;;;;;;5053060;28;20209;-63
2022/04/02 03:57:44;;;;;;;6.40;5.60;;;2.30;99.90;;;;;;5052863;28;20213;-63
2022/04/02 04:00:11;;;;;;;9.13;5.77;;;2.30;99.90;;;;;;5052997;28;20222;-63
2022/04/02 04:02:38;;;;;;;13.70;6.27;;;2.20;99.90;;;;;;5052679;28;20260;-63
2022/04/02 04:05:08;;;;;;;10.23;5.90;;;2.20;99.90;;;;;;5053186;28;20233;-63
2022/04/02 04:07:35;;;;;;;10.27;5.80;;;2.20;99.90;;;;;;5052750;28;20213;-63
2022/04/02 04:10:02;;;;;;;10.60;5.80;;;2.10;99.90;;;;;;5052572;28;20209;-63
2022/04/02 04:12:28;;;;;;;10.43;6.47;;;2.00;99.90;;;;;;5052834;28;20205;-63
2022/04/02 04:14:57;;;;;;;9.80;5.70;;;2.10;99.90;;;;;;5052534;28;20461;-63
2022/04/02 04:17:24;;;;;;;10.53;5.83;;;2.10;99.90;;;;;;5052536;28;20217;-63
2022/04/02 04:19:51;;;;;;;11.03;6.53;;;2.10;99.90;;;;;;5052317;28;20202;-63
2022/04/02 04:22:18;;;;;;;17.03;6.87;;;2.10;99.90;;;;;;5052394;28;20296;-63
2022/04/02 04:24:46;;;;;;;9.07;6.10;;;2.20;99.90;;;;;;5052526;28;20225;-63
2022/04/02 04:27:12;;;;;;;9.23;6.17;;;2.20;99.90;;;;;;5052358;28;20735;-63
2022/04/02 04:29:39;;;;;;;10.27;6.20;;;2.30;99.90;;;;;;5052475;28;20206;-63
2022/04/02 04:32:08;;;;;;;9.37;5.97;;;2.20;99.90;;;;;;5052154;28;20233;-63
2022/04/02 04:34:35;;;;;;;7.77;6.03;;;2.10;99.90;;;;;;5052041;28;20259;-63
2022/04/02 04:37:02;;;;;;;8.33;5.87;;;2.00;99.90;;;;;;5052169;28;20207;-63
2022/04/02 04:39:29;;;;;;;9.00;5.60;;;1.90;99.90;;;;;;5052156;28;20205;-63
2022/04/02 04:41:55;;;;;;;13.00;6.40;;;1.90;99.90;;;;;;5052222;28;20221;-63
2022/04/02 04:44:22;;;;;;;9.93;5.20;;;2.00;99.90;;;;;;5051959;28;20286;-63
2022/04/02 04:46:49;;;;;;;9.70;6.33;;;2.00;99.90;;;;;;5052089;28;20576;-63
2022/04/02 04:49:17;;;;;;;7.13;5.33;;;2.20;99.90;;;;;;5052160;28;20205;-63
2022/04/02 04:51:44;;;;;;;10.93;7.10;;;2.20;99.90;;;;;;5051722;28;20756;-63
2022/04/02 04:54:10;;;;;;;8.47;5.80;;;2.20;99.90;;;;;;5051943;28;20205;-63
2022/04/02 04:56:37;;;;;;;6.00;5.40;;;2.20;99.90;;;;;;5051922;28;20623;-65
2022/04/02 04:59:04;;;;;;;6.47;5.27;;;2.20;99.90;;;;;;5052010;28;20648;-63
2022/04/02 05:01:31;;;;;;;6.07;5.03;;;2.10;99.90;;;;;;5051871;28;20229;-63
2022/04/02 05:03:59;;;;;;;7.73;6.20;;;1.90;99.90;;;;;;5051558;28;20618;-63
2022/04/02 05:06:28;;;;;;;6.63;5.60;;;1.90;99.90;;;;;;5051697;28;20214;-63
2022/04/02 05:08:55;;;;;;;6.27;5.50;;;1.90;99.90;;;;;;5051936;28;20206;-63
2022/04/02 05:11:22;;;;;;;6.30;5.33;;;2.00;99.90;;;;;;5051926;28;20264;-63
2022/04/02 05:13:49;;;;;;;6.03;5.37;;;1.90;99.90;;;;;;5051512;28;20731;-63
2022/04/02 05:16:16;;;;;;;6.37;5.67;;;1.90;99.90;;;;;;5051736;28;20251;-63
2022/04/02 05:18:44;;;;;;;8.80;6.23;;;1.90;99.90;;;;;;5051722;28;20202;-63
2022/04/02 05:21:11;;;;;;;6.27;5.40;;;2.00;99.90;;;;;;5051563;28;20229;-64
2022/04/02 05:23:39;;;;;;;6.27;5.67;;;2.00;99.90;;;;;;5051680;28;20293;-64
2022/04/02 05:26:05;;;;;;;6.13;5.53;;;2.10;99.90;;;;;;5051667;28;20222;-63
2022/04/02 05:28:32;;;;;;;8.00;5.47;;;2.00;99.90;;;;;;5051619;28;20205;-63
2022/04/02 05:30:59;;;;;;;5.70;5.20;;;2.00;99.90;;;;;;5051511;28;20225;-63
2022/04/02 05:33:25;;;;;;;10.73;5.87;;;2.00;99.90;;;;;;5053928;28;20201;-63
2022/04/02 05:35:52;;;;;;;7.33;5.40;;;2.30;99.90;;;;;;5055891;28;20209;-63
2022/04/02 05:38:19;;;;;;;9.70;5.33;;;2.20;99.90;;;;;;5055593;28;20673;-64
2022/04/02 05:40:47;;;;;;;5.77;5.20;;;2.20;99.90;;;;;;5055350;28;20229;-63
2022/04/02 05:43:14;;;;;;;5.60;4.93;;;2.10;99.90;;;;;;5055353;28;20205;-63
2022/04/02 05:45:40;;;;;;;5.10;4.60;;;2.20;99.90;;;;;;5055317;28;20225;-63
2022/04/02 05:48:07;;;;;;;7.20;5.30;;;2.10;99.90;;;;;;5055344;28;20232;-63
2022/04/02 05:50:34;;;;;;;8.33;4.90;;;2.10;99.90;;;;;;5055373;28;20287;-63
2022/04/02 05:53:01;;;;;;;6.67;5.23;;;2.10;99.90;;;;;;5055266;28;20255;-63
2022/04/02 05:55:29;;;;;;;7.80;5.10;;;2.10;99.90;;;;;;5055421;28;20209;-63
2022/04/02 05:57:58;;;;;;;6.50;5.50;;;2.10;99.90;;;;;;5055245;28;20617;-64
2022/04/02 06:00:25;;;;;;;7.07;5.23;;;2.10;99.90;;;;;;5054991;28;20320;-63
2022/04/02 06:02:52;;;;;;;6.10;4.70;;;2.20;99.90;;;;;;5054893;28;20583;-63
2022/04/02 06:05:19;;;;;;;6.03;4.73;;;2.20;99.90;;;;;;5055205;28;20299;-63
2022/04/02 06:07:45;;;;;;;5.40;4.60;;;2.20;99.90;;;;;;5055048;28;20205;-63
2022/04/02 06:10:12;;;;;;;6.47;4.80;;;2.30;99.90;;;;;;5055165;28;20225;-63
2022/04/02 06:12:39;;;;;;;5.23;4.40;;;2.30;99.90;;;;;;5055003;28;20262;-63
2022/04/02 06:15:09;;;;;;;5.90;4.83;;;2.30;99.90;;;;;;5055103;28;20259;-63
2022/04/02 06:17:36;;;;;;;5.23;4.47;;;2.30;99.90;;;;;;5055185;28;20212;-63
2022/04/02 06:20:04;;;;;;;6.57;3.97;;;2.60;99.90;;;;;;5054978;28;20210;-63
2022/04/02 06:22:31;;;;;;;4.30;3.90;;;2.50;99.90;;;;;;5055093;28;20538;-63
2022/04/02 06:24:58;;;;;;;5.23;4.40;;;2.50;99.90;;;;;;5054582;28;20638;-63
2022/04/02 06:27:24;;;;;;;5.30;4.47;;;2.60;99.90;;;;;;5054822;28;20216;-63
2022/04/02 06:29:51;;;;;;;5.77;4.20;;;2.60;99.90;;;;;;5054854;28;20208;-63
2022/04/02 06:32:22;;;;;;;4.43;3.80;;;2.80;99.90;;;;;;5054773;28;20201;-63
2022/04/02 06:34:48;;;;;;;6.67;4.43;;;3.00;99.90;;;;;;5054423;28;20271;-63
2022/04/02 06:37:15;;;;;;;4.70;4.30;;;3.10;99.90;;;;;;5054996;28;20206;-63
2022/04/02 06:39:42;;;;;;;4.93;4.43;;;3.20;99.90;;;;;;5054586;28;20231;-64
2022/04/02 06:42:09;;;;;;;4.80;3.93;;;3.40;99.90;;;;;;5053984;28;20317;-64
2022/04/02 06:44:36;;;;;;;4.67;4.03;;;3.50;99.90;;;;;;5053671;28;20226;-64
2022/04/02 06:47:03;;;;;;;6.30;4.50;;;3.50;99.90;;;;;;5054297;28;20202;-64
2022/04/02 06:49:31;;;;;;;6.60;4.60;;;3.70;99.90;;;;;;5055098;28;20263;-64
2022/04/02 06:51:59;;;;;;;4.30;3.90;;;3.80;99.90;;;;;;5054067;28;20279;-64
2022/04/02 06:54:26;;;;;;;4.27;3.87;;;3.90;99.90;;;;;;5053984;28;20233;-64
2022/04/02 06:56:52;;;;;;;4.87;4.23;;;3.80;99.90;;;;;;5054051;28;20214;-63
2022/04/02 06:59:19;;;;;;;4.63;3.93;;;3.80;99.90;;;;;;5054096;28;20680;-64
2022/04/02 07:01:46;;;;;;;4.60;3.97;;;3.90;99.90;;;;;;5054089;28;20641;-63
2022/04/02 07:04:12;;;;;;;7.23;4.00;;;3.80;99.90;;;;;;5053741;28;20206;-63
2022/04/02 07:06:44;;;;;;;6.70;4.13;;;3.80;99.90;;;;;;5053769;28;20229;-63
2022/04/02 07:09:11;;;;;;;6.10;4.10;;;3.80;99.90;;;;;;5053862;28;20727;-64
2022/04/02 07:11:38;;;;;;;5.33;4.40;;;3.80;99.90;;;;;;5054002;28;20309;-62
2022/04/02 07:14:04;;;;;;;6.10;4.93;;;3.80;99.90;;;;;;5053473;28;20213;-65
2022/04/02 07:16:31;;;;;;;7.23;5.00;;;3.90;99.90;;;;;;5053955;28;20664;-61
2022/04/02 07:19:00;;;;;;;5.70;4.80;;;4.00;99.90;;;;;;5053617;28;20205;-65
2022/04/02 07:21:28;;;;;;;5.03;4.50;;;4.10;99.90;;;;;;5053600;28;20275;-62
2022/04/02 07:23:56;;;;;;;6.93;4.80;;;4.00;99.90;;;;;;5053303;28;20766;-62
2022/04/02 07:26:23;;;;;;;6.37;4.40;;;3.90;99.90;;;;;;5053433;28;20724;-62
2022/04/02 07:28:52;;;;;;;5.67;4.40;;;3.90;99.90;;;;;;5053576;28;20669;-62
2022/04/02 07:31:19;;;;;;;5.73;4.03;;;3.90;99.90;;;;;;5053616;28;20230;-62
2022/04/02 07:33:46;;;;;;;4.07;3.67;;;3.80;99.90;;;;;;5053482;28;20213;-62
2022/04/02 07:36:24;;;;;;;5.03;4.53;;;3.70;99.90;;;;;;5053377;28;20288;-62
2022/04/02 07:39:02;;;;;;;4.70;4.30;;;3.70;99.90;;;;;;5053476;28;20251;-62
2022/04/02 07:41:42;;;;;;;4.80;4.10;;;3.60;99.90;;;;;;5053310;28;20279;-62
2022/04/02 07:44:21;;;;;;;4.50;4.10;;;3.50;99.90;;;;;;5052908;28;20201;-62
2022/04/02 07:46:48;;;;;;;7.33;4.33;;;3.50;99.90;;;;;;5052775;28;20222;-62
2022/04/02 07:49:20;;;;;;;4.47;3.73;;;3.60;99.90;;;;;;5053197;28;20240;-62
2022/04/02 07:51:51;;;;;;;4.17;3.77;;;3.90;99.90;;;;;;5053235;28;20241;-61
2022/04/02 07:54:22;;;;;;;5.17;4.03;;;4.00;99.90;;;;;;5052464;28;20255;-61
2022/04/02 07:56:51;;;;;;;5.87;3.37;;;4.00;99.90;;;;;;5052319;28;20685;-61
2022/04/02 07:59:34;;;;;;;5.77;3.80;;;4.00;99.90;;;;;;5052856;28;20206;-61
2022/04/02 08:02:01;;;;;;;7.03;3.40;;;3.90;99.90;;;;;;5052772;28;20279;-61
2022/04/02 08:04:29;;;;;;;6.00;3.43;;;3.90;99.90;;;;;;5052536;28;20206;-61
2022/04/02 08:06:56;;;;;;;8.10;3.80;;;3.80;99.90;;;;;;5052636;28;20233;-60
2022/04/02 08:09:26;;;;;;;4.80;3.17;;;3.60;99.90;;;;;;5052580;28;20205;-61
2022/04/02 08:11:53;;;;;;;3.73;3.33;;;3.60;99.90;;;;;;5052428;28;20321;-61
2022/04/02 08:14:21;;;;;;;3.90;3.50;;;3.70;99.90;;;;;;5052280;28;20603;-61
2022/04/02 08:16:49;;;;;;;5.23;3.60;;;3.80;99.90;;;;;;5052239;28;20209;-60
2022/04/02 08:19:21;;;;;;;4.67;3.30;;;3.70;99.90;;;;;;5052536;28;20251;-62
2022/04/02 08:21:48;;;;;;;6.70;3.20;;;3.60;99.90;;;;;;5052728;28;20317;-62
2022/04/02 08:24:15;;;;;;;3.60;3.20;;;3.50;99.90;;;;;;5052310;28;20202;-62
2022/04/02 08:26:54;;;;;;;5.63;3.53;;;3.50;99.90;;;;;;5052275;28;20230;-62
2022/04/02 08:29:30;;;;;;;4.57;3.93;;;3.50;99.90;;;;;;5052865;28;20220;-62
2022/04/02 08:32:03;;;;;;;3.50;3.07;;;3.70;99.90;;;;;;5052664;28;20286;-62
2022/04/02 08:35:02;;;;;;;4.10;3.20;;;3.80;99.90;;;;;;5052459;28;20205;-62
2022/04/02 08:37:34;;;;;;;5.27;3.50;;;3.80;99.90;;;;;;5048190;28;20262;-61
2022/04/02 08:40:11;;;;;;;5.73;3.30;;;3.70;99.90;;;;;;5052619;28;20274;-62
2022/04/02 08:43:10;;;;;;;4.60;3.27;;;3.70;99.90;;;;;;5052460;28;20218;-61
2022/04/02 08:45:55;;;;;;;4.70;3.40;;;3.70;99.90;;;;;;5052429;28;20225;-62
2022/04/02 08:48:27;;;;;;;6.23;3.90;;;3.60;99.90;;;;;;5052697;28;20205;-62
2022/04/02 08:51:35;;;;;;;4.83;4.00;;;3.60;99.90;;;;;;5052052;28;20651;-61
2022/04/02 08:54:06;;;;;;;6.47;4.80;;;3.70;99.90;;;;;;4990372;28;20257;-61
2022/04/02 08:56:39;;;;;;;4.27;3.60;;;3.80;99.90;;;;;;5044030;28;20205;-63
2022/04/02 08:59:08;;;;;;;5.40;4.17;;;3.80;99.90;;;;;;5052161;28;20224;-63
2022/04/02 09:01:41;;;;;;;4.97;4.57;;;3.80;99.90;;;;;;5052140;28;20604;-62
2022/04/02 09:04:56;;;;;;;9.97;4.30;;;3.90;99.90;;;;;;5052172;28;20210;-64
2022/04/02 09:08:14;;;;;;;5.00;4.50;;;3.90;99.90;;;;;;5052187;28;20202;-63
2022/04/02 09:11:19;;;;;;;7.97;5.20;;;3.80;99.90;;;;;;5051911;28;20225;-63
2022/04/02 09:14:19;;;;;;;5.27;4.77;;;3.50;99.90;;;;;;5051965;28;20209;-61
2022/04/02 09:17:05;;;;;;;7.00;5.40;;;3.50;99.90;;;;;;5052106;28;20202;-59
2022/04/02 09:19:50;;;;;;;5.70;4.80;;;3.50;99.90;;;;;;5052165;28;20209;-59
2022/04/02 09:22:35;;;;;;;6.73;5.57;;;3.70;99.90;;;;;;5051940;28;20634;-62
2022/04/02 09:25:41;;;;;;;6.43;4.83;;;4.00;99.90;;;;;;5052058;28;20215;-59
2022/04/02 09:28:18;;;;;;;5.53;4.77;;;4.20;99.90;;;;;;5051767;28;20209;-60
2022/04/02 09:31:36;;;;;;;5.83;5.23;;;4.20;99.90;;;;;;5051844;28;20229;-62
2022/04/02 09:34:51;;;;;;;7.07;5.37;;;4.00;99.90;;;;;;5006928;28;20205;-62
2022/04/02 09:37:38;;;;;;;6.13;5.03;;;3.90;99.90;;;;;;5051564;28;20202;-59
2022/04/02 09:40:06;;;;;;;5.20;4.60;;;4.00;99.90;;;;;;5051524;28;20255;-58
2022/04/02 09:42:41;;;;;;;7.87;7.07;;;4.10;99.90;;;;;;5051740;28;20616;-59
2022/04/02 09:45:09;;;;;;;7.17;5.00;;;4.10;99.90;;;;;;5049817;28;20653;-60
2022/04/02 09:48:04;;;;;;;7.73;5.20;;;4.10;99.90;;;;;;5049041;28;20469;-66
2022/04/02 09:50:33;;;;;;;8.70;6.13;;;4.10;99.90;;;;;;5043615;28;20234;-62
2022/04/02 09:53:15;;;;;;;6.13;5.20;;;4.10;99.90;;;;;;5050986;28;20259;-63
2022/04/02 09:55:49;;;;;;;6.00;5.37;;;4.00;99.90;;;;;;5051138;28;20288;-62
2022/04/02 09:58:43;;;;;;;7.13;5.47;;;4.00;99.90;;;;;;5050875;28;20282;-65
2022/04/02 10:01:14;;;;;;;7.70;5.67;;;3.90;99.90;;;;;;5050637;28;20614;-63
2022/04/02 10:03:52;;;;;;;6.90;5.80;;;3.90;99.90;;;;;;5050859;28;20209;-65
2022/04/02 10:06:30;;;;;;;6.97;5.77;;;4.10;99.90;;;;;;5050777;28;20244;-66
2022/04/02 10:09:09;;;;;;;5.23;4.50;;;4.30;99.90;;;;;;5051128;28;20283;-62
2022/04/02 10:11:40;;;;;;;5.77;5.23;;;4.40;99.90;;;;;;5050855;28;20233;-65
2022/04/02 10:14:08;;;;;;;5.03;4.63;;;4.40;99.90;;;;;;5051558;28;20255;-63
2022/04/02 10:16:35;;;;;;;6.40;5.00;;;4.30;99.90;;;;;;5050955;28;20202;-65
2022/04/02 10:19:08;;;;;;;6.13;5.20;;;4.30;99.90;;;;;;5052871;28;20205;-63
2022/04/02 10:21:38;;;;;;;7.07;4.97;;;4.50;99.90;;;;;;5054467;28;20232;-63
2022/04/02 10:24:14;;;;;;;5.33;4.83;;;4.60;99.90;;;;;;5054087;28;20740;-63
2022/04/02 10:26:41;;;;;;;5.57;4.97;;;4.60;99.90;;;;;;5054474;28;20228;-63
2022/04/02 10:29:12;;;;;;;5.03;4.53;;;4.50;99.90;;;;;;5054222;28;20206;-64
2022/04/02 10:31:45;;;;;;;5.70;5.10;;;4.40;99.90;;;;;;5054587;28;20321;-64
2022/04/02 10:34:14;;;;;;;5.77;5.17;;;4.50;99.90;;;;;;5054418;28;20202;-64
2022/04/02 10:36:46;;;;;;;5.30;4.80;;;4.60;99.90;;;;;;5054087;28;20270;-63
2022/04/02 10:39:16;;;;;;;5.73;4.90;;;4.60;99.90;;;;;;5054183;28;20210;-65
2022/04/02 10:41:45;;;;;;;7.43;5.50;;;4.60;99.90;;;;;;5054019;28;20253;-63
2022/04/02 10:44:22;;;;;;;5.73;5.10;;;4.40;99.90;;;;;;5053812;28;20641;-64
2022/04/02 10:46:53;;;;;;;6.43;5.83;;;4.30;99.90;;;;;;5054092;28;20225;-64
2022/04/02 10:49:25;;;;;;;6.57;5.83;;;4.10;99.90;;;;;;5053679;28;20727;-64
2022/04/02 10:51:55;;;;;;;9.03;5.73;;;4.10;99.90;;;;;;5054167;28;20237;-65
2022/04/02 10:54:28;;;;;;;6.53;5.90;;;4.30;99.90;;;;;;5053697;28;20298;-64
2022/04/02 10:56:56;;;;;;;8.30;5.40;;;4.40;99.90;;;;;;5053823;28;20206;-62
2022/04/02 10:59:30;;;;;;;5.30;4.80;;;4.60;99.90;;;;;;5054432;28;20233;-62
2022/04/02 11:02:00;;;;;;;5.70;4.50;;;4.50;99.90;;;;;;5053504;28;20324;-62
2022/04/02 11:04:30;;;;;;;7.60;5.90;;;4.20;99.90;;;;;;5053507;28;20205;-64
2022/04/02 11:06:59;;;;;;;8.40;6.63;;;4.20;99.90;;;;;;5054071;28;20304;-62
2022/04/02 11:09:32;;;;;;;7.30;6.13;;;4.20;99.90;;;;;;5053768;28;20212;-64
2022/04/02 11:12:03;;;;;;;6.50;5.80;;;4.40;99.90;;;;;;5053862;28;20279;-64
2022/04/02 11:14:38;;;;;;;7.43;6.30;;;4.70;99.90;;;;;;5053384;28;20262;-68
2022/04/02 11:17:05;;;;;;;6.70;5.10;;;4.80;99.90;;;;;;5054127;28;20205;-65
2022/04/02 11:22:27;;;;;;;6.07;5.47;;;4.60;99.90;;;;;;5054300;28;20687;-60
2022/04/02 11:25:02;;;;;;;7.40;5.43;;;4.40;99.90;;;;;;5053817;28;20264;-61
2022/04/02 11:27:30;;;;;;;8.73;6.07;;;4.40;99.90;;;;;;5053757;28;20767;-62
2022/04/02 11:30:03;;;;;;;6.50;5.63;;;4.40;99.90;;;;;;5052469;28;20585;-63
2022/04/02 11:32:39;;;;;;;6.90;5.40;;;4.30;99.90;;;;;;5053657;28;20255;-64
2022/04/02 11:35:08;;;;;;;5.80;5.30;;;4.40;99.90;;;;;;5052959;28;20650;-63
2022/04/02 11:37:51;;;;;;;7.20;5.47;;;4.30;99.90;;;;;;5053219;28;20208;-65
2022/04/02 11:40:19;;;;;;;7.23;5.90;;;4.20;99.90;;;;;;5052943;28;20230;-60
2022/04/02 11:42:48;;;;;;;7.60;6.50;;;4.20;99.90;;;;;;5053411;28;20201;-61
2022/04/02 11:45:19;;;;;;;8.43;7.03;;;4.30;99.90;;;;;;5052986;28;20214;-62
2022/04/02 11:47:49;;;;;;;6.80;6.10;;;4.30;99.90;;;;;;5053132;28;20316;-62
2022/04/02 11:50:26;;;;;;;10.27;5.87;;;4.30;99.90;;;;;;5052665;28;20764;-63
2022/04/02 11:52:55;;;;;;;6.90;5.80;;;4.30;99.90;;;;;;5053227;28;20737;-62
2022/04/02 11:55:23;;;;;;;7.53;6.70;;;4.20;99.90;;;;;;5052781;28;20245;-63
2022/04/02 11:57:58;;;;;;;9.17;6.87;;;4.30;99.90;;;;;;5052854;28;20205;-65
2022/04/02 12:00:26;;;;;;;7.57;6.77;;;4.50;99.90;;;;;;5052644;28;20229;-63
2022/04/02 12:02:54;;;;;;;7.27;6.50;;;4.50;99.90;;;;;;5052841;28;20296;-63
2022/04/02 12:05:21;;;;;;;8.43;7.43;;;4.30;99.90;;;;;;5052883;28;20205;-66
2022/04/02 12:07:49;;;;;;;8.20;7.40;;;4.20;99.90;;;;;;5052626;28;20745;-65
2022/04/02 12:10:18;;;;;;;10.77;7.33;;;4.20;99.90;;;;;;5052669;28;20299;-64
2022/04/02 12:12:46;;;;;;;8.47;6.87;;;4.10;99.90;;;;;;5052664;28;20213;-64
2022/04/02 12:15:15;;;;;;;9.10;7.33;;;4.20;99.90;;;;;;5052019;28;20209;-63
2022/04/02 12:17:46;;;;;;;8.77;7.70;;;4.30;99.90;;;;;;5052370;28;20280;-65
2022/04/02 12:20:17;;;;;;;7.97;7.17;;;4.20;99.90;;;;;;5052661;28;20656;-65
2022/04/02 12:22:46;;;;;;;8.77;7.87;;;4.10;99.90;;;;;;5053226;28;20214;-64
2022/04/02 12:25:21;;;;;;;9.00;7.63;;;4.30;99.90;;;;;;5051901;28;20359;-65
2022/04/02 12:27:50;;;;;;;9.37;7.70;;;4.50;99.90;;;;;;5051870;28;20216;-67
2022/04/02 12:30:21;;;;;;;7.10;5.40;;;4.60;99.90;;;;;;5052211;28;20283;-65
2022/04/02 12:32:48;;;;;;;7.40;6.70;;;4.50;99.90;;;;;;5052844;28;20206;-64
2022/04/02 12:35:23;;;;;;;10.70;8.27;;;4.40;99.90;;;;;;5052328;28;20251;-63
2022/04/02 12:37:52;;;;;;;7.70;6.90;;;4.40;99.90;;;;;;5052521;28;20567;-61
2022/04/02 12:40:22;;;;;;;7.80;6.83;;;4.40;99.90;;;;;;5052128;28;20259;-62
2022/04/02 12:42:51;;;;;;;9.80;7.67;;;4.20;99.90;;;;;;5052047;28;20699;-62
2022/04/02 12:45:19;;;;;;;8.13;7.33;;;4.20;99.90;;;;;;5051980;28;20279;-61
2022/04/02 12:47:58;;;;;;;7.73;6.20;;;4.30;99.90;;;;;;5052306;28;20233;-63
2022/04/02 12:50:25;;;;;;;7.07;6.37;;;4.40;99.90;;;;;;5051877;28;20233;-63
2022/04/02 12:52:52;;;;;;;8.60;7.50;;;4.40;99.90;;;;;;5047583;28;20205;-62
2022/04/02 12:55:25;;;;;;;8.20;7.40;;;4.30;99.90;;;;;;5050725;28;20629;-62
2022/04/02 12:58:08;;;;;;;7.57;6.77;;;4.20;99.90;;;;;;5051086;28;20259;-62
2022/04/02 13:00:37;;;;;;;8.73;7.17;;;4.00;99.90;;;;;;5051722;28;20350;-62
2022/04/02 13:03:05;;;;;;;7.67;6.57;;;3.90;99.90;;;;;;5051576;28;20724;-62
2022/04/02 13:05:45;;;;;;;8.30;7.07;;;3.80;99.90;;;;;;5051023;28;20209;-61
2022/04/02 13:08:26;;;;;;;9.97;8.20;;;3.90;99.90;;;;;;5051761;28;20225;-61
2022/04/02 13:10:57;;;;;;;9.87;8.27;;;3.80;99.90;;;;;;5051583;28;20227;-61
2022/04/02 13:13:39;;;;;;;9.00;8.10;;;3.80;99.90;;;;;;5051576;28;20205;-62
2022/04/02 13:16:07;;;;;;;10.63;8.13;;;3.80;99.90;;;;;;5051325;28;20205;-62
2022/04/02 13:21:22;;;;;;;9.50;7.93;;;4.00;99.90;;;;;;5051515;28;20711;-65